sensor_id;sensor_type;location;lat;lon;timestamp;P1;durP1;ratioP1;P2;durP2;ratioP2
8791;SDS011;4432;50.890;4.744;2023-02-22T00:00:09;41.73;;;11.80;;
8791;SDS011;4432;50.890;4.744;2023-02-22T00:02:51;37.47;;;11.20;;
8791;SDS011;4432;50.890;4.744;2023-02-22T00:05:24;27.13;;;11.87;;
8791;SDS011;4432;50.890;4.744;2023-02-22T00:07:51;34.70;;;11.00;;
8791;SDS011;4432;50.890;4.744;2023-02-22T00:10:21;30.27;;;10.67;;
8791;SDS011;4432;50.890;4.744;2023-02-22T00:12:48;23.30;;;10.67;;
8791;SDS011;4432;50.890;4.744;2023-02-22T00:15:17;29.93;;;10.90;;
8791;SDS011;4432;50.890;4.744;2023-02-22T00:17:45;35.80;;;10.47;;
8791;SDS011;4432;50.890;4.744;2023-02-22T00:20:11;39.63;;;10.67;;
8791;SDS011;4432;50.890;4.744;2023-02-22T00:22:39;21.20;;;10.33;;
8791;SDS011;4432;50.890;4.744;2023-02-22T00:25:06;24.97;;;10.30;;
8791;SDS011;4432;50.890;4.744;2023-02-22T00:27:32;25.17;;;9.80;;
8791;SDS011;4432;50.890;4.744;2023-02-22T00:29:58;28.80;;;11.03;;
8791;SDS011;4432;50.890;4.744;2023-02-22T00:32:24;30.60;;;11.00;;
8791;SDS011;4432;50.890;4.744;2023-02-22T00:34:51;24.83;;;11.57;;
8791;SDS011;4432;50.890;4.744;2023-02-22T00:37:17;30.80;;;10.93;;
8791;SDS011;4432;50.890;4.744;2023-02-22T00:39:47;36.27;;;10.13;;
8791;SDS011;4432;50.890;4.744;2023-02-22T00:42:14;35.47;;;10.00;;
8791;SDS011;4432;50.890;4.744;2023-02-22T00:44:41;20.30;;;9.93;;
8791;SDS011;4432;50.890;4.744;2023-02-22T00:47:07;22.00;;;9.33;;
8791;SDS011;4432;50.890;4.744;2023-02-22T00:49:33;21.20;;;9.97;;
8791;SDS011;4432;50.890;4.744;2023-02-22T00:51:59;31.90;;;11.37;;
8791;SDS011;4432;50.890;4.744;2023-02-22T00:54:25;23.10;;;8.70;;
8791;SDS011;4432;50.890;4.744;2023-02-22T00:56:51;27.60;;;10.33;;
8791;SDS011;4432;50.890;4.744;2023-02-22T00:59:17;21.53;;;9.53;;
8791;SDS011;4432;50.890;4.744;2023-02-22T01:01:43;16.87;;;8.73;;
8791;SDS011;4432;50.890;4.744;2023-02-22T01:04:09;18.50;;;9.63;;
8791;SDS011;4432;50.890;4.744;2023-02-22T01:06:35;16.97;;;9.13;;
8791;SDS011;4432;50.890;4.744;2023-02-22T01:09:01;20.17;;;8.73;;
8791;SDS011;4432;50.890;4.744;2023-02-22T01:11:27;38.47;;;9.47;;
8791;SDS011;4432;50.890;4.744;2023-02-22T01:13:53;22.70;;;9.40;;
8791;SDS011;4432;50.890;4.744;2023-02-22T01:16:20;20.97;;;9.30;;
8791;SDS011;4432;50.890;4.744;2023-02-22T01:18:46;19.20;;;8.87;;
8791;SDS011;4432;50.890;4.744;2023-02-22T01:21:12;22.67;;;8.77;;
8791;SDS011;4432;50.890;4.744;2023-02-22T01:23:38;28.77;;;9.43;;
8791;SDS011;4432;50.890;4.744;2023-02-22T01:26:04;15.67;;;7.80;;
8791;SDS011;4432;50.890;4.744;2023-02-22T01:28:30;19.17;;;8.53;;
8791;SDS011;4432;50.890;4.744;2023-02-22T01:30:57;26.83;;;9.00;;
8791;SDS011;4432;50.890;4.744;2023-02-22T01:33:23;18.40;;;9.37;;
8791;SDS011;4432;50.890;4.744;2023-02-22T01:35:49;16.57;;;8.37;;
8791;SDS011;4432;50.890;4.744;2023-02-22T01:38:15;24.20;;;8.23;;
8791;SDS011;4432;50.890;4.744;2023-02-22T01:40:43;24.37;;;8.90;;
8791;SDS011;4432;50.890;4.744;2023-02-22T01:43:20;19.87;;;8.47;;
8791;SDS011;4432;50.890;4.744;2023-02-22T01:51:08;17.07;;;8.60;;
8791;SDS011;4432;50.890;4.744;2023-02-22T01:56:20;19.60;;;9.07;;
8791;SDS011;4432;50.890;4.744;2023-02-22T01:58:48;16.40;;;9.40;;
8791;SDS011;4432;50.890;4.744;2023-02-22T02:01:20;24.73;;;8.93;;
8791;SDS011;4432;50.890;4.744;2023-02-22T02:03:48;19.83;;;8.20;;
8791;SDS011;4432;50.890;4.744;2023-02-22T02:06:16;8.60;;;6.30;;
8791;SDS011;4432;50.890;4.744;2023-02-22T02:09:03;14.93;;;8.07;;
8791;SDS011;4432;50.890;4.744;2023-02-22T02:11:35;13.23;;;7.03;;
8791;SDS011;4432;50.890;4.744;2023-02-22T02:14:04;15.83;;;7.77;;
8791;SDS011;4432;50.890;4.744;2023-02-22T02:16:42;11.27;;;7.20;;
8791;SDS011;4432;50.890;4.744;2023-02-22T02:19:30;25.10;;;8.10;;
8791;SDS011;4432;50.890;4.744;2023-02-22T02:30:48;19.77;;;7.63;;
8791;SDS011;4432;50.890;4.744;2023-02-22T02:36:12;24.47;;;7.13;;
8791;SDS011;4432;50.890;4.744;2023-02-22T02:39:47;21.50;;;7.53;;
8791;SDS011;4432;50.890;4.744;2023-02-22T02:41:48;16.47;;;7.70;;
8791;SDS011;4432;50.890;4.744;2023-02-22T02:46:59;19.53;;;7.90;;
8791;SDS011;4432;50.890;4.744;2023-02-22T02:49:30;14.87;;;7.73;;
8791;SDS011;4432;50.890;4.744;2023-02-22T02:52:00;13.80;;;7.30;;
8791;SDS011;4432;50.890;4.744;2023-02-22T02:54:28;20.47;;;7.93;;
8791;SDS011;4432;50.890;4.744;2023-02-22T02:56:55;15.70;;;7.60;;
8791;SDS011;4432;50.890;4.744;2023-02-22T02:59:31;13.53;;;8.00;;
8791;SDS011;4432;50.890;4.744;2023-02-22T03:12:50;11.17;;;6.87;;
8791;SDS011;4432;50.890;4.744;2023-02-22T03:18:18;13.73;;;7.40;;
8791;SDS011;4432;50.890;4.744;2023-02-22T03:26:13;20.97;;;8.50;;
8791;SDS011;4432;50.890;4.744;2023-02-22T03:28:44;18.73;;;8.20;;
8791;SDS011;4432;50.890;4.744;2023-02-22T03:31:20;12.03;;;7.43;;
8791;SDS011;4432;50.890;4.744;2023-02-22T03:34:00;17.77;;;7.60;;
8791;SDS011;4432;50.890;4.744;2023-02-22T03:36:35;14.67;;;6.97;;
8791;SDS011;4432;50.890;4.744;2023-02-22T03:39:14;14.53;;;7.33;;
8791;SDS011;4432;50.890;4.744;2023-02-22T03:41:43;12.97;;;7.60;;
8791;SDS011;4432;50.890;4.744;2023-02-22T03:44:13;16.57;;;8.77;;
8791;SDS011;4432;50.890;4.744;2023-02-22T03:46:43;10.23;;;6.40;;
8791;SDS011;4432;50.890;4.744;2023-02-22T03:49:34;11.53;;;6.97;;
8791;SDS011;4432;50.890;4.744;2023-02-22T03:52:00;14.33;;;7.63;;
8791;SDS011;4432;50.890;4.744;2023-02-22T03:54:27;13.63;;;6.97;;
8791;SDS011;4432;50.890;4.744;2023-02-22T03:56:54;12.30;;;6.27;;
8791;SDS011;4432;50.890;4.744;2023-02-22T03:59:24;13.50;;;6.57;;
8791;SDS011;4432;50.890;4.744;2023-02-22T04:01:55;10.33;;;6.30;;
8791;SDS011;4432;50.890;4.744;2023-02-22T04:04:21;17.50;;;6.93;;
8791;SDS011;4432;50.890;4.744;2023-02-22T04:06:48;10.53;;;6.20;;
8791;SDS011;4432;50.890;4.744;2023-02-22T04:09:14;13.97;;;7.10;;
8791;SDS011;4432;50.890;4.744;2023-02-22T04:11:40;11.43;;;6.23;;
8791;SDS011;4432;50.890;4.744;2023-02-22T04:14:06;11.90;;;7.13;;
8791;SDS011;4432;50.890;4.744;2023-02-22T04:16:31;11.93;;;7.33;;
8791;SDS011;4432;50.890;4.744;2023-02-22T04:18:57;11.90;;;5.53;;
8791;SDS011;4432;50.890;4.744;2023-02-22T04:21:23;12.70;;;6.83;;
8791;SDS011;4432;50.890;4.744;2023-02-22T04:23:49;10.60;;;6.27;;
8791;SDS011;4432;50.890;4.744;2023-02-22T04:26:15;11.47;;;6.13;;
8791;SDS011;4432;50.890;4.744;2023-02-22T04:28:41;12.67;;;6.67;;
8791;SDS011;4432;50.890;4.744;2023-02-22T04:31:06;10.87;;;6.27;;
8791;SDS011;4432;50.890;4.744;2023-02-22T04:33:32;11.73;;;7.07;;
8791;SDS011;4432;50.890;4.744;2023-02-22T04:35:58;8.23;;;4.97;;
8791;SDS011;4432;50.890;4.744;2023-02-22T04:38:24;13.57;;;6.50;;
8791;SDS011;4432;50.890;4.744;2023-02-22T04:40:51;9.63;;;6.37;;
8791;SDS011;4432;50.890;4.744;2023-02-22T04:43:17;11.77;;;5.47;;
8791;SDS011;4432;50.890;4.744;2023-02-22T04:45:44;9.90;;;6.40;;
8791;SDS011;4432;50.890;4.744;2023-02-22T04:48:09;8.83;;;5.83;;
8791;SDS011;4432;50.890;4.744;2023-02-22T04:50:35;10.23;;;6.20;;
8791;SDS011;4432;50.890;4.744;2023-02-22T04:53:01;12.67;;;6.77;;
8791;SDS011;4432;50.890;4.744;2023-02-22T04:55:27;11.43;;;6.53;;
8791;SDS011;4432;50.890;4.744;2023-02-22T04:57:53;10.60;;;6.70;;
8791;SDS011;4432;50.890;4.744;2023-02-22T05:00:20;10.80;;;5.50;;
8791;SDS011;4432;50.890;4.744;2023-02-22T05:02:46;12.10;;;5.87;;
8791;SDS011;4432;50.890;4.744;2023-02-22T05:05:13;12.60;;;6.43;;
8791;SDS011;4432;50.890;4.744;2023-02-22T05:07:40;9.27;;;6.07;;
8791;SDS011;4432;50.890;4.744;2023-02-22T05:10:07;11.43;;;6.70;;
8791;SDS011;4432;50.890;4.744;2023-02-22T05:12:34;11.73;;;6.13;;
8791;SDS011;4432;50.890;4.744;2023-02-22T05:15:00;9.43;;;6.10;;
8791;SDS011;4432;50.890;4.744;2023-02-22T05:17:25;11.50;;;6.93;;
8791;SDS011;4432;50.890;4.744;2023-02-22T05:19:51;10.00;;;6.20;;
8791;SDS011;4432;50.890;4.744;2023-02-22T05:22:17;9.60;;;5.53;;
8791;SDS011;4432;50.890;4.744;2023-02-22T05:24:43;11.10;;;6.40;;
8791;SDS011;4432;50.890;4.744;2023-02-22T05:27:08;9.53;;;5.13;;
8791;SDS011;4432;50.890;4.744;2023-02-22T05:29:34;9.40;;;5.20;;
8791;SDS011;4432;50.890;4.744;2023-02-22T05:32:03;11.13;;;6.60;;
8791;SDS011;4432;50.890;4.744;2023-02-22T05:34:30;11.87;;;6.90;;
8791;SDS011;4432;50.890;4.744;2023-02-22T05:36:56;9.27;;;5.87;;
8791;SDS011;4432;50.890;4.744;2023-02-22T05:39:22;9.67;;;5.57;;
8791;SDS011;4432;50.890;4.744;2023-02-22T05:41:48;8.63;;;5.97;;
8791;SDS011;4432;50.890;4.744;2023-02-22T05:44:14;9.27;;;5.20;;
8791;SDS011;4432;50.890;4.744;2023-02-22T05:46:40;11.23;;;6.10;;
8791;SDS011;4432;50.890;4.744;2023-02-22T05:49:05;7.10;;;5.00;;
8791;SDS011;4432;50.890;4.744;2023-02-22T05:51:31;8.03;;;4.63;;
8791;SDS011;4432;50.890;4.744;2023-02-22T05:53:57;10.83;;;5.50;;
8791;SDS011;4432;50.890;4.744;2023-02-22T05:56:25;14.07;;;6.60;;
8791;SDS011;4432;50.890;4.744;2023-02-22T05:58:52;9.53;;;6.50;;
8791;SDS011;4432;50.890;4.744;2023-02-22T06:01:18;8.97;;;6.50;;
8791;SDS011;4432;50.890;4.744;2023-02-22T06:03:49;8.90;;;5.93;;
8791;SDS011;4432;50.890;4.744;2023-02-22T06:06:15;7.40;;;5.30;;
8791;SDS011;4432;50.890;4.744;2023-02-22T06:08:41;9.67;;;6.10;;
8791;SDS011;4432;50.890;4.744;2023-02-22T06:11:08;8.73;;;4.77;;
8791;SDS011;4432;50.890;4.744;2023-02-22T06:13:35;7.30;;;5.80;;
8791;SDS011;4432;50.890;4.744;2023-02-22T06:16:01;6.47;;;4.40;;
8791;SDS011;4432;50.890;4.744;2023-02-22T06:18:27;10.40;;;5.00;;
8791;SDS011;4432;50.890;4.744;2023-02-22T06:20:55;7.87;;;5.40;;
8791;SDS011;4432;50.890;4.744;2023-02-22T06:23:21;9.10;;;5.83;;
8791;SDS011;4432;50.890;4.744;2023-02-22T06:25:47;9.83;;;4.87;;
8791;SDS011;4432;50.890;4.744;2023-02-22T06:28:13;10.07;;;5.63;;
8791;SDS011;4432;50.890;4.744;2023-02-22T06:30:39;9.97;;;5.23;;
8791;SDS011;4432;50.890;4.744;2023-02-22T06:33:07;9.47;;;5.40;;
8791;SDS011;4432;50.890;4.744;2023-02-22T06:35:33;5.63;;;3.87;;
8791;SDS011;4432;50.890;4.744;2023-02-22T06:37:59;9.27;;;5.43;;
8791;SDS011;4432;50.890;4.744;2023-02-22T06:40:25;6.33;;;5.03;;
8791;SDS011;4432;50.890;4.744;2023-02-22T06:42:53;8.10;;;5.43;;
8791;SDS011;4432;50.890;4.744;2023-02-22T06:45:19;8.53;;;5.93;;
8791;SDS011;4432;50.890;4.744;2023-02-22T06:47:45;6.97;;;4.63;;
8791;SDS011;4432;50.890;4.744;2023-02-22T06:50:25;6.17;;;4.93;;
8791;SDS011;4432;50.890;4.744;2023-02-22T06:52:53;8.07;;;4.87;;
8791;SDS011;4432;50.890;4.744;2023-02-22T06:55:20;8.97;;;5.30;;
8791;SDS011;4432;50.890;4.744;2023-02-22T06:57:47;7.83;;;5.37;;
8791;SDS011;4432;50.890;4.744;2023-02-22T07:00:14;10.47;;;4.70;;
8791;SDS011;4432;50.890;4.744;2023-02-22T07:02:42;11.63;;;4.60;;
8791;SDS011;4432;50.890;4.744;2023-02-22T07:05:09;8.20;;;5.20;;
8791;SDS011;4432;50.890;4.744;2023-02-22T07:07:37;17.57;;;6.83;;
8791;SDS011;4432;50.890;4.744;2023-02-22T07:10:04;13.10;;;5.70;;
8791;SDS011;4432;50.890;4.744;2023-02-22T07:12:32;8.63;;;5.50;;
8791;SDS011;4432;50.890;4.744;2023-02-22T07:14:58;9.10;;;5.90;;
8791;SDS011;4432;50.890;4.744;2023-02-22T07:17:24;10.33;;;6.20;;
8791;SDS011;4432;50.890;4.744;2023-02-22T07:19:49;11.77;;;5.87;;
8791;SDS011;4432;50.890;4.744;2023-02-22T07:22:15;8.43;;;5.20;;
8791;SDS011;4432;50.890;4.744;2023-02-22T07:24:41;5.70;;;4.83;;
8791;SDS011;4432;50.890;4.744;2023-02-22T07:27:07;7.03;;;5.03;;
8791;SDS011;4432;50.890;4.744;2023-02-22T07:29:33;8.43;;;4.50;;
8791;SDS011;4432;50.890;4.744;2023-02-22T07:32:00;8.10;;;5.50;;
8791;SDS011;4432;50.890;4.744;2023-02-22T07:34:26;6.70;;;4.43;;
8791;SDS011;4432;50.890;4.744;2023-02-22T07:36:52;7.67;;;5.23;;
8791;SDS011;4432;50.890;4.744;2023-02-22T07:39:18;7.07;;;5.00;;
8791;SDS011;4432;50.890;4.744;2023-02-22T07:41:43;7.73;;;5.17;;
8791;SDS011;4432;50.890;4.744;2023-02-22T07:44:09;10.03;;;5.47;;
8791;SDS011;4432;50.890;4.744;2023-02-22T07:46:35;9.17;;;5.50;;
8791;SDS011;4432;50.890;4.744;2023-02-22T07:49:00;7.60;;;4.97;;
8791;SDS011;4432;50.890;4.744;2023-02-22T07:51:26;8.07;;;5.50;;
8791;SDS011;4432;50.890;4.744;2023-02-22T07:53:52;9.17;;;5.73;;
8791;SDS011;4432;50.890;4.744;2023-02-22T07:56:17;11.50;;;6.33;;
8791;SDS011;4432;50.890;4.744;2023-02-22T07:58:43;8.13;;;5.00;;
8791;SDS011;4432;50.890;4.744;2023-02-22T08:01:09;11.47;;;6.77;;
8791;SDS011;4432;50.890;4.744;2023-02-22T08:03:35;9.97;;;6.17;;
8791;SDS011;4432;50.890;4.744;2023-02-22T08:06:02;11.97;;;7.07;;
8791;SDS011;4432;50.890;4.744;2023-02-22T08:08:29;11.03;;;7.13;;
8791;SDS011;4432;50.890;4.744;2023-02-22T08:10:55;10.77;;;6.30;;
8791;SDS011;4432;50.890;4.744;2023-02-22T08:13:21;10.37;;;6.53;;
8791;SDS011;4432;50.890;4.744;2023-02-22T08:15:49;12.20;;;6.97;;
8791;SDS011;4432;50.890;4.744;2023-02-22T08:18:16;12.70;;;6.53;;
8791;SDS011;4432;50.890;4.744;2023-02-22T08:20:44;13.53;;;6.87;;
8791;SDS011;4432;50.890;4.744;2023-02-22T08:23:12;12.23;;;6.37;;
8791;SDS011;4432;50.890;4.744;2023-02-22T08:25:39;9.87;;;5.70;;
8791;SDS011;4432;50.890;4.744;2023-02-22T08:28:09;12.27;;;7.33;;
8791;SDS011;4432;50.890;4.744;2023-02-22T08:30:39;12.43;;;6.80;;
8791;SDS011;4432;50.890;4.744;2023-02-22T08:33:09;8.50;;;5.80;;
8791;SDS011;4432;50.890;4.744;2023-02-22T08:35:38;9.63;;;6.10;;
8791;SDS011;4432;50.890;4.744;2023-02-22T08:38:05;12.30;;;6.30;;
8791;SDS011;4432;50.890;4.744;2023-02-22T08:40:33;12.00;;;6.67;;
8791;SDS011;4432;50.890;4.744;2023-02-22T08:43:00;10.13;;;6.63;;
8791;SDS011;4432;50.890;4.744;2023-02-22T08:45:26;12.90;;;6.30;;
8791;SDS011;4432;50.890;4.744;2023-02-22T08:47:52;9.50;;;5.97;;
8791;SDS011;4432;50.890;4.744;2023-02-22T08:50:20;9.30;;;6.27;;
8791;SDS011;4432;50.890;4.744;2023-02-22T08:52:52;11.87;;;6.57;;
8791;SDS011;4432;50.890;4.744;2023-02-22T08:55:23;9.40;;;5.10;;
8791;SDS011;4432;50.890;4.744;2023-02-22T08:57:50;9.27;;;5.93;;
8791;SDS011;4432;50.890;4.744;2023-02-22T09:00:16;8.77;;;5.27;;
8791;SDS011;4432;50.890;4.744;2023-02-22T09:02:43;10.27;;;5.53;;
8791;SDS011;4432;50.890;4.744;2023-02-22T09:05:10;8.63;;;5.07;;
8791;SDS011;4432;50.890;4.744;2023-02-22T09:07:37;10.23;;;5.63;;
8791;SDS011;4432;50.890;4.744;2023-02-22T09:10:06;8.93;;;5.57;;
8791;SDS011;4432;50.890;4.744;2023-02-22T09:12:31;7.07;;;4.67;;
8791;SDS011;4432;50.890;4.744;2023-02-22T09:14:57;7.00;;;4.70;;
8791;SDS011;4432;50.890;4.744;2023-02-22T09:17:23;6.93;;;4.90;;
8791;SDS011;4432;50.890;4.744;2023-02-22T09:19:49;6.10;;;4.40;;
8791;SDS011;4432;50.890;4.744;2023-02-22T09:22:14;7.97;;;4.83;;
8791;SDS011;4432;50.890;4.744;2023-02-22T09:24:40;7.47;;;5.07;;
8791;SDS011;4432;50.890;4.744;2023-02-22T09:27:07;6.10;;;4.43;;
8791;SDS011;4432;50.890;4.744;2023-02-22T09:29:34;7.53;;;5.03;;
8791;SDS011;4432;50.890;4.744;2023-02-22T09:32:00;9.30;;;4.83;;
8791;SDS011;4432;50.890;4.744;2023-02-22T09:34:27;6.83;;;4.27;;
8791;SDS011;4432;50.890;4.744;2023-02-22T09:36:54;7.63;;;4.70;;
8791;SDS011;4432;50.890;4.744;2023-02-22T09:39:21;5.13;;;4.20;;
8791;SDS011;4432;50.890;4.744;2023-02-22T09:47:24;7.27;;;4.47;;
8791;SDS011;4432;50.890;4.744;2023-02-22T09:50:03;8.60;;;5.10;;
8791;SDS011;4432;50.890;4.744;2023-02-22T09:52:46;7.47;;;5.20;;
8791;SDS011;4432;50.890;4.744;2023-02-22T09:57:55;5.47;;;4.90;;
8791;SDS011;4432;50.890;4.744;2023-02-22T10:00:23;7.63;;;5.30;;
8791;SDS011;4432;50.890;4.744;2023-02-22T10:05:51;5.97;;;4.40;;
8791;SDS011;4432;50.890;4.744;2023-02-22T10:08:26;9.33;;;4.60;;
8791;SDS011;4432;50.890;4.744;2023-02-22T10:16:30;7.57;;;5.07;;
8791;SDS011;4432;50.890;4.744;2023-02-22T10:27:02;7.10;;;4.97;;
8791;SDS011;4432;50.890;4.744;2023-02-22T10:29:51;8.57;;;5.33;;
8791;SDS011;4432;50.890;4.744;2023-02-22T10:32:28;6.37;;;4.47;;
8791;SDS011;4432;50.890;4.744;2023-02-22T10:34:59;7.47;;;4.87;;
8791;SDS011;4432;50.890;4.744;2023-02-22T10:37:33;9.40;;;4.87;;
8791;SDS011;4432;50.890;4.744;2023-02-22T10:42:44;12.80;;;5.90;;
8791;SDS011;4432;50.890;4.744;2023-02-22T10:45:17;12.10;;;5.57;;
8791;SDS011;4432;50.890;4.744;2023-02-22T10:47:54;9.13;;;5.70;;
8791;SDS011;4432;50.890;4.744;2023-02-22T10:50:23;10.40;;;6.60;;
8791;SDS011;4432;50.890;4.744;2023-02-22T10:52:54;9.03;;;5.83;;
8791;SDS011;4432;50.890;4.744;2023-02-22T10:55:20;10.03;;;5.57;;
8791;SDS011;4432;50.890;4.744;2023-02-22T10:57:46;9.90;;;6.23;;
8791;SDS011;4432;50.890;4.744;2023-02-22T11:02:48;17.60;;;6.47;;
8791;SDS011;4432;50.890;4.744;2023-02-22T11:05:32;9.33;;;5.80;;
8791;SDS011;4432;50.890;4.744;2023-02-22T11:08:23;8.67;;;6.20;;
8791;SDS011;4432;50.890;4.744;2023-02-22T11:10:59;8.60;;;5.53;;
8791;SDS011;4432;50.890;4.744;2023-02-22T11:13:31;11.60;;;5.77;;
8791;SDS011;4432;50.890;4.744;2023-02-22T11:16:02;10.13;;;5.67;;
8791;SDS011;4432;50.890;4.744;2023-02-22T11:18:43;10.07;;;5.83;;
8791;SDS011;4432;50.890;4.744;2023-02-22T11:21:11;8.77;;;5.70;;
8791;SDS011;4432;50.890;4.744;2023-02-22T11:23:44;10.93;;;6.03;;
8791;SDS011;4432;50.890;4.744;2023-02-22T11:26:11;7.10;;;5.80;;
8791;SDS011;4432;50.890;4.744;2023-02-22T11:28:43;7.90;;;5.70;;
8791;SDS011;4432;50.890;4.744;2023-02-22T11:31:16;12.00;;;6.33;;
8791;SDS011;4432;50.890;4.744;2023-02-22T11:33:54;8.77;;;6.43;;
8791;SDS011;4432;50.890;4.744;2023-02-22T11:36:34;14.47;;;6.77;;
8791;SDS011;4432;50.890;4.744;2023-02-22T11:41:56;16.40;;;6.47;;
8791;SDS011;4432;50.890;4.744;2023-02-22T11:44:24;10.33;;;6.30;;
8791;SDS011;4432;50.890;4.744;2023-02-22T11:46:52;8.93;;;6.47;;
8791;SDS011;4432;50.890;4.744;2023-02-22T11:49:20;9.97;;;6.63;;
8791;SDS011;4432;50.890;4.744;2023-02-22T11:55:12;10.17;;;7.10;;
8791;SDS011;4432;50.890;4.744;2023-02-22T12:00:22;11.93;;;7.43;;
8791;SDS011;4432;50.890;4.744;2023-02-22T12:08:13;16.77;;;8.00;;
8791;SDS011;4432;50.890;4.744;2023-02-22T12:19:36;11.67;;;7.53;;
8791;SDS011;4432;50.890;4.744;2023-02-22T12:22:16;14.73;;;7.90;;
8791;SDS011;4432;50.890;4.744;2023-02-22T12:24:48;16.70;;;8.50;;
8791;SDS011;4432;50.890;4.744;2023-02-22T12:27:46;11.33;;;7.90;;
8791;SDS011;4432;50.890;4.744;2023-02-22T12:32:47;16.57;;;8.90;;
8791;SDS011;4432;50.890;4.744;2023-02-22T12:35:21;13.23;;;7.53;;
8791;SDS011;4432;50.890;4.744;2023-02-22T12:40:20;14.33;;;8.60;;
8791;SDS011;4432;50.890;4.744;2023-02-22T12:48:26;13.77;;;9.67;;
8791;SDS011;4432;50.890;4.744;2023-02-22T12:53:39;13.47;;;9.37;;
8791;SDS011;4432;50.890;4.744;2023-02-22T12:59:28;16.07;;;10.60;;
8791;SDS011;4432;50.890;4.744;2023-02-22T13:01:41;11.83;;;8.90;;
8791;SDS011;4432;50.890;4.744;2023-02-22T13:04:09;17.27;;;9.63;;
8791;SDS011;4432;50.890;4.744;2023-02-22T13:06:41;15.80;;;9.87;;
8791;SDS011;4432;50.890;4.744;2023-02-22T13:09:32;20.20;;;11.17;;
8791;SDS011;4432;50.890;4.744;2023-02-22T13:20:30;17.47;;;11.03;;
8791;SDS011;4432;50.890;4.744;2023-02-22T13:23:02;17.77;;;10.03;;
8791;SDS011;4432;50.890;4.744;2023-02-22T13:25:53;14.37;;;10.63;;
8791;SDS011;4432;50.890;4.744;2023-02-22T13:45:24;15.37;;;11.30;;
8791;SDS011;4432;50.890;4.744;2023-02-22T13:53:25;23.23;;;11.20;;
8791;SDS011;4432;50.890;4.744;2023-02-22T13:55:57;18.17;;;10.90;;
8791;SDS011;4432;50.890;4.744;2023-02-22T13:58:24;21.50;;;11.37;;
8791;SDS011;4432;50.890;4.744;2023-02-22T14:00:51;15.73;;;11.00;;
8791;SDS011;4432;50.890;4.744;2023-02-22T14:06:00;17.23;;;10.77;;
8791;SDS011;4432;50.890;4.744;2023-02-22T14:10:56;16.17;;;11.00;;
8791;SDS011;4432;50.890;4.744;2023-02-22T14:13:27;23.60;;;12.80;;
8791;SDS011;4432;50.890;4.744;2023-02-22T14:18:35;19.40;;;12.73;;
8791;SDS011;4432;50.890;4.744;2023-02-22T14:21:08;22.20;;;11.63;;
8791;SDS011;4432;50.890;4.744;2023-02-22T14:23:39;22.40;;;12.57;;
8791;SDS011;4432;50.890;4.744;2023-02-22T14:39:49;18.17;;;12.03;;
8791;SDS011;4432;50.890;4.744;2023-02-22T14:42:38;21.00;;;12.77;;
8791;SDS011;4432;50.890;4.744;2023-02-22T14:55:42;20.93;;;13.00;;
8791;SDS011;4432;50.890;4.744;2023-02-22T15:03:48;28.70;;;15.63;;
8791;SDS011;4432;50.890;4.744;2023-02-22T15:06:16;29.03;;;17.63;;
8791;SDS011;4432;50.890;4.744;2023-02-22T15:08:45;29.63;;;15.83;;
8791;SDS011;4432;50.890;4.744;2023-02-22T15:11:24;26.57;;;15.83;;
8791;SDS011;4432;50.890;4.744;2023-02-22T15:13:55;23.03;;;14.97;;
8791;SDS011;4432;50.890;4.744;2023-02-22T15:16:22;23.80;;;15.53;;
8791;SDS011;4432;50.890;4.744;2023-02-22T15:18:54;23.40;;;14.30;;
8791;SDS011;4432;50.890;4.744;2023-02-22T15:21:23;20.73;;;14.10;;
8791;SDS011;4432;50.890;4.744;2023-02-22T15:29:12;22.80;;;14.90;;
8791;SDS011;4432;50.890;4.744;2023-02-22T15:31:39;27.80;;;14.57;;
8791;SDS011;4432;50.890;4.744;2023-02-22T15:36:43;24.17;;;14.43;;
8791;SDS011;4432;50.890;4.744;2023-02-22T15:39:29;25.23;;;14.73;;
8791;SDS011;4432;50.890;4.744;2023-02-22T15:42:11;21.93;;;13.40;;
8791;SDS011;4432;50.890;4.744;2023-02-22T15:44:52;23.90;;;13.97;;
8791;SDS011;4432;50.890;4.744;2023-02-22T15:47:26;23.20;;;14.17;;
8791;SDS011;4432;50.890;4.744;2023-02-22T15:50:12;20.27;;;13.33;;
8791;SDS011;4432;50.890;4.744;2023-02-22T15:52:40;25.97;;;14.90;;
8791;SDS011;4432;50.890;4.744;2023-02-22T15:55:14;24.13;;;14.93;;
8791;SDS011;4432;50.890;4.744;2023-02-22T15:57:41;21.37;;;14.20;;
8791;SDS011;4432;50.890;4.744;2023-02-22T16:00:17;23.60;;;14.97;;
8791;SDS011;4432;50.890;4.744;2023-02-22T16:03:21;21.90;;;13.97;;
8791;SDS011;4432;50.890;4.744;2023-02-22T16:05:51;24.13;;;13.83;;
8791;SDS011;4432;50.890;4.744;2023-02-22T16:08:22;24.80;;;13.87;;
8791;SDS011;4432;50.890;4.744;2023-02-22T16:13:27;24.80;;;15.33;;
8791;SDS011;4432;50.890;4.744;2023-02-22T16:15:57;23.17;;;14.73;;
8791;SDS011;4432;50.890;4.744;2023-02-22T16:20:59;26.17;;;15.87;;
8791;SDS011;4432;50.890;4.744;2023-02-22T16:23:28;29.27;;;16.67;;
8791;SDS011;4432;50.890;4.744;2023-02-22T16:26:01;25.33;;;16.50;;
8791;SDS011;4432;50.890;4.744;2023-02-22T16:28:32;28.47;;;16.27;;
8791;SDS011;4432;50.890;4.744;2023-02-22T16:30:59;27.83;;;17.10;;
8791;SDS011;4432;50.890;4.744;2023-02-22T16:33:26;32.03;;;18.27;;
8791;SDS011;4432;50.890;4.744;2023-02-22T16:35:59;31.57;;;17.57;;
8791;SDS011;4432;50.890;4.744;2023-02-22T16:38:30;30.80;;;17.30;;
8791;SDS011;4432;50.890;4.744;2023-02-22T16:40:57;35.37;;;19.90;;
8791;SDS011;4432;50.890;4.744;2023-02-22T16:43:26;36.53;;;16.87;;
8791;SDS011;4432;50.890;4.744;2023-02-22T16:45:55;32.73;;;18.33;;
8791;SDS011;4432;50.890;4.744;2023-02-22T16:48:22;32.83;;;16.17;;
8791;SDS011;4432;50.890;4.744;2023-02-22T16:50:50;25.90;;;16.20;;
8791;SDS011;4432;50.890;4.744;2023-02-22T16:53:19;27.93;;;15.90;;
8791;SDS011;4432;50.890;4.744;2023-02-22T16:55:47;31.23;;;16.00;;
8791;SDS011;4432;50.890;4.744;2023-02-22T16:58:14;28.33;;;16.63;;
8791;SDS011;4432;50.890;4.744;2023-02-22T17:00:43;25.90;;;16.03;;
8791;SDS011;4432;50.890;4.744;2023-02-22T17:03:16;28.83;;;14.73;;
8791;SDS011;4432;50.890;4.744;2023-02-22T17:05:42;30.70;;;15.37;;
8791;SDS011;4432;50.890;4.744;2023-02-22T17:08:08;30.10;;;16.10;;
8791;SDS011;4432;50.890;4.744;2023-02-22T17:10:34;27.80;;;14.47;;
8791;SDS011;4432;50.890;4.744;2023-02-22T17:13:00;27.30;;;15.30;;
8791;SDS011;4432;50.890;4.744;2023-02-22T17:15:28;23.67;;;13.70;;
8791;SDS011;4432;50.890;4.744;2023-02-22T17:17:56;25.57;;;14.90;;
8791;SDS011;4432;50.890;4.744;2023-02-22T17:20:23;23.00;;;12.63;;
8791;SDS011;4432;50.890;4.744;2023-02-22T17:22:59;26.27;;;13.73;;
8791;SDS011;4432;50.890;4.744;2023-02-22T17:25:32;23.40;;;13.00;;
8791;SDS011;4432;50.890;4.744;2023-02-22T17:28:03;22.27;;;13.00;;
8791;SDS011;4432;50.890;4.744;2023-02-22T17:30:30;21.10;;;12.50;;
8791;SDS011;4432;50.890;4.744;2023-02-22T17:32:57;21.97;;;12.90;;
8791;SDS011;4432;50.890;4.744;2023-02-22T17:35:27;23.23;;;13.00;;
8791;SDS011;4432;50.890;4.744;2023-02-22T17:37:55;24.33;;;13.33;;
8791;SDS011;4432;50.890;4.744;2023-02-22T17:40:21;21.90;;;13.30;;
8791;SDS011;4432;50.890;4.744;2023-02-22T17:42:47;23.77;;;12.07;;
8791;SDS011;4432;50.890;4.744;2023-02-22T17:45:19;23.07;;;12.70;;
8791;SDS011;4432;50.890;4.744;2023-02-22T17:47:47;23.53;;;12.47;;
8791;SDS011;4432;50.890;4.744;2023-02-22T17:50:15;24.90;;;12.73;;
8791;SDS011;4432;50.890;4.744;2023-02-22T17:52:41;26.73;;;13.67;;
8791;SDS011;4432;50.890;4.744;2023-02-22T17:55:09;24.50;;;12.67;;
8791;SDS011;4432;50.890;4.744;2023-02-22T17:57:36;26.47;;;14.10;;
8791;SDS011;4432;50.890;4.744;2023-02-22T18:00:04;23.70;;;12.90;;
8791;SDS011;4432;50.890;4.744;2023-02-22T18:02:40;25.57;;;13.23;;
8791;SDS011;4432;50.890;4.744;2023-02-22T18:05:08;23.60;;;12.70;;
8791;SDS011;4432;50.890;4.744;2023-02-22T18:07:35;24.90;;;13.70;;
8791;SDS011;4432;50.890;4.744;2023-02-22T18:10:01;22.87;;;13.60;;
8791;SDS011;4432;50.890;4.744;2023-02-22T18:12:29;27.03;;;13.70;;
8791;SDS011;4432;50.890;4.744;2023-02-22T18:14:56;25.73;;;13.97;;
8791;SDS011;4432;50.890;4.744;2023-02-22T18:17:22;27.43;;;13.17;;
8791;SDS011;4432;50.890;4.744;2023-02-22T18:19:47;24.90;;;13.40;;
8791;SDS011;4432;50.890;4.744;2023-02-22T18:22:13;24.70;;;12.60;;
8791;SDS011;4432;50.890;4.744;2023-02-22T18:24:39;27.17;;;14.37;;